sensor_id;sensor_type;location;lat;lon;timestamp;P1;durP1;ratioP1;P2;durP2;ratioP2
36551;SDS011;22559;54.176;12.102;2023-07-22T00:01:01;2.30;;;2.20;;
36551;SDS011;22559;54.176;12.102;2023-07-22T00:03:27;2.23;;;2.03;;
36551;SDS011;22559;54.176;12.102;2023-07-22T00:06:06;1.90;;;1.80;;
36551;SDS011;22559;54.176;12.102;2023-07-22T00:08:33;2.23;;;2.07;;
36551;SDS011;22559;54.176;12.102;2023-07-22T00:11:00;3.73;;;2.10;;
36551;SDS011;22559;54.176;12.102;2023-07-22T00:13:26;2.27;;;2.17;;
36551;SDS011;22559;54.176;12.102;2023-07-22T00:15:52;2.40;;;2.00;;
36551;SDS011;22559;54.176;12.102;2023-07-22T00:18:18;2.20;;;2.10;;
36551;SDS011;22559;54.176;12.102;2023-07-22T00:20:44;3.37;;;2.50;;
36551;SDS011;22559;54.176;12.102;2023-07-22T00:23:10;1.90;;;1.80;;
36551;SDS011;22559;54.176;12.102;2023-07-22T00:25:35;2.10;;;2.00;;
36551;SDS011;22559;54.176;12.102;2023-07-22T00:28:01;2.00;;;1.90;;
36551;SDS011;22559;54.176;12.102;2023-07-22T00:30:29;1.90;;;1.80;;
36551;SDS011;22559;54.176;12.102;2023-07-22T00:32:54;2.00;;;1.90;;
36551;SDS011;22559;54.176;12.102;2023-07-22T00:35:20;2.30;;;2.20;;
36551;SDS011;22559;54.176;12.102;2023-07-22T00:37:46;2.33;;;1.97;;
36551;SDS011;22559;54.176;12.102;2023-07-22T00:40:12;2.20;;;2.10;;
36551;SDS011;22559;54.176;12.102;2023-07-22T00:42:38;2.40;;;2.20;;
36551;SDS011;22559;54.176;12.102;2023-07-22T00:45:04;1.97;;;1.90;;
36551;SDS011;22559;54.176;12.102;2023-07-22T00:47:32;2.80;;;2.60;;
36551;SDS011;22559;54.176;12.102;2023-07-22T00:49:59;2.60;;;2.40;;
36551;SDS011;22559;54.176;12.102;2023-07-22T00:52:27;2.90;;;2.60;;
36551;SDS011;22559;54.176;12.102;2023-07-22T00:54:52;3.83;;;3.00;;
36551;SDS011;22559;54.176;12.102;2023-07-22T00:57:18;3.03;;;2.83;;
36551;SDS011;22559;54.176;12.102;2023-07-22T00:59:44;3.00;;;2.80;;
36551;SDS011;22559;54.176;12.102;2023-07-22T01:02:10;3.00;;;2.80;;
36551;SDS011;22559;54.176;12.102;2023-07-22T01:04:36;3.50;;;3.20;;
36551;SDS011;22559;54.176;12.102;2023-07-22T01:07:03;3.03;;;2.83;;
36551;SDS011;22559;54.176;12.102;2023-07-22T01:09:37;3.90;;;3.50;;
36551;SDS011;22559;54.176;12.102;2023-07-22T01:12:03;3.53;;;3.23;;
36551;SDS011;22559;54.176;12.102;2023-07-22T01:14:31;3.67;;;3.37;;
36551;SDS011;22559;54.176;12.102;2023-07-22T01:17:04;3.93;;;3.50;;
36551;SDS011;22559;54.176;12.102;2023-07-22T01:19:31;3.40;;;3.10;;
36551;SDS011;22559;54.176;12.102;2023-07-22T01:21:59;3.97;;;3.67;;
36551;SDS011;22559;54.176;12.102;2023-07-22T01:24:27;4.20;;;3.80;;
36551;SDS011;22559;54.176;12.102;2023-07-22T01:26:53;4.87;;;3.93;;
36551;SDS011;22559;54.176;12.102;2023-07-22T01:29:19;4.47;;;4.00;;
36551;SDS011;22559;54.176;12.102;2023-07-22T01:31:48;4.60;;;3.97;;
36551;SDS011;22559;54.176;12.102;2023-07-22T01:34:16;5.17;;;4.37;;
36551;SDS011;22559;54.176;12.102;2023-07-22T01:36:42;4.43;;;4.03;;
36551;SDS011;22559;54.176;12.102;2023-07-22T01:39:08;4.90;;;4.40;;
36551;SDS011;22559;54.176;12.102;2023-07-22T01:41:36;6.00;;;4.47;;
36551;SDS011;22559;54.176;12.102;2023-07-22T01:44:01;5.83;;;5.10;;
36551;SDS011;22559;54.176;12.102;2023-07-22T01:46:27;5.20;;;4.70;;
36551;SDS011;22559;54.176;12.102;2023-07-22T01:48:53;5.20;;;4.70;;
36551;SDS011;22559;54.176;12.102;2023-07-22T01:51:20;6.40;;;5.47;;
36551;SDS011;22559;54.176;12.102;2023-07-22T01:53:45;6.87;;;5.63;;
36551;SDS011;22559;54.176;12.102;2023-07-22T01:56:11;8.73;;;5.60;;
36551;SDS011;22559;54.176;12.102;2023-07-22T01:58:36;7.37;;;5.90;;
36551;SDS011;22559;54.176;12.102;2023-07-22T02:01:02;8.13;;;5.60;;
36551;SDS011;22559;54.176;12.102;2023-07-22T02:03:28;8.63;;;6.13;;
36551;SDS011;22559;54.176;12.102;2023-07-22T02:05:53;8.03;;;6.20;;
36551;SDS011;22559;54.176;12.102;2023-07-22T02:08:26;8.73;;;6.30;;
36551;SDS011;22559;54.176;12.102;2023-07-22T02:10:52;9.53;;;6.63;;
36551;SDS011;22559;54.176;12.102;2023-07-22T02:13:18;8.67;;;6.33;;
36551;SDS011;22559;54.176;12.102;2023-07-22T02:15:43;8.17;;;6.67;;
36551;SDS011;22559;54.176;12.102;2023-07-22T02:18:09;12.03;;;6.80;;
36551;SDS011;22559;54.176;12.102;2023-07-22T02:20:35;8.03;;;7.17;;
36551;SDS011;22559;54.176;12.102;2023-07-22T02:23:00;11.83;;;7.63;;
36551;SDS011;22559;54.176;12.102;2023-07-22T02:25:26;11.50;;;7.50;;
36551;SDS011;22559;54.176;12.102;2023-07-22T02:27:51;12.70;;;8.33;;
36551;SDS011;22559;54.176;12.102;2023-07-22T02:30:17;13.57;;;8.03;;
36551;SDS011;22559;54.176;12.102;2023-07-22T02:32:43;11.70;;;7.80;;
36551;SDS011;22559;54.176;12.102;2023-07-22T02:35:09;12.50;;;7.43;;
36551;SDS011;22559;54.176;12.102;2023-07-22T02:37:36;12.17;;;7.80;;
36551;SDS011;22559;54.176;12.102;2023-07-22T02:40:03;9.87;;;7.40;;
36551;SDS011;22559;54.176;12.102;2023-07-22T02:42:39;13.67;;;8.40;;
36551;SDS011;22559;54.176;12.102;2023-07-22T02:45:05;11.97;;;8.17;;
36551;SDS011;22559;54.176;12.102;2023-07-22T02:47:33;11.97;;;8.30;;
36551;SDS011;22559;54.176;12.102;2023-07-22T02:49:59;14.50;;;8.27;;
36551;SDS011;22559;54.176;12.102;2023-07-22T02:52:25;14.77;;;9.13;;
36551;SDS011;22559;54.176;12.102;2023-07-22T02:57:34;13.03;;;8.90;;
36551;SDS011;22559;54.176;12.102;2023-07-22T02:59:59;13.67;;;8.93;;
36551;SDS011;22559;54.176;12.102;2023-07-22T03:02:26;14.60;;;9.07;;
36551;SDS011;22559;54.176;12.102;2023-07-22T03:04:51;16.47;;;10.17;;
36551;SDS011;22559;54.176;12.102;2023-07-22T03:07:17;14.33;;;8.70;;
36551;SDS011;22559;54.176;12.102;2023-07-22T03:09:42;17.00;;;9.53;;
36551;SDS011;22559;54.176;12.102;2023-07-22T03:12:08;15.03;;;9.73;;
36551;SDS011;22559;54.176;12.102;2023-07-22T03:14:34;15.30;;;10.33;;
36551;SDS011;22559;54.176;12.102;2023-07-22T03:17:02;14.27;;;9.67;;
36551;SDS011;22559;54.176;12.102;2023-07-22T03:19:31;15.47;;;10.23;;
36551;SDS011;22559;54.176;12.102;2023-07-22T03:21:56;17.30;;;10.53;;
36551;SDS011;22559;54.176;12.102;2023-07-22T03:24:22;14.80;;;10.13;;
36551;SDS011;22559;54.176;12.102;2023-07-22T03:26:47;15.87;;;10.77;;
36551;SDS011;22559;54.176;12.102;2023-07-22T03:29:14;13.17;;;9.73;;
36551;SDS011;22559;54.176;12.102;2023-07-22T03:31:39;14.80;;;10.17;;
36551;SDS011;22559;54.176;12.102;2023-07-22T03:34:05;17.87;;;10.53;;
36551;SDS011;22559;54.176;12.102;2023-07-22T03:36:30;17.37;;;11.00;;
36551;SDS011;22559;54.176;12.102;2023-07-22T03:38:59;12.33;;;9.43;;
36551;SDS011;22559;54.176;12.102;2023-07-22T03:41:25;21.50;;;13.57;;
36551;SDS011;22559;54.176;12.102;2023-07-22T03:43:50;17.40;;;9.67;;
36551;SDS011;22559;54.176;12.102;2023-07-22T03:46:16;14.77;;;9.90;;
36551;SDS011;22559;54.176;12.102;2023-07-22T03:48:41;15.03;;;10.00;;
36551;SDS011;22559;54.176;12.102;2023-07-22T03:51:07;18.63;;;10.30;;
36551;SDS011;22559;54.176;12.102;2023-07-22T03:53:33;14.43;;;9.43;;
36551;SDS011;22559;54.176;12.102;2023-07-22T03:55:58;17.00;;;10.87;;
36551;SDS011;22559;54.176;12.102;2023-07-22T03:58:24;16.40;;;10.53;;
36551;SDS011;22559;54.176;12.102;2023-07-22T04:00:49;14.03;;;9.50;;
36551;SDS011;22559;54.176;12.102;2023-07-22T04:03:15;16.33;;;10.37;;
36551;SDS011;22559;54.176;12.102;2023-07-22T04:05:41;16.60;;;10.90;;
36551;SDS011;22559;54.176;12.102;2023-07-22T04:08:06;14.80;;;9.97;;
36551;SDS011;22559;54.176;12.102;2023-07-22T04:10:32;19.00;;;9.97;;
36551;SDS011;22559;54.176;12.102;2023-07-22T04:12:57;16.37;;;10.23;;
36551;SDS011;22559;54.176;12.102;2023-07-22T04:15:23;19.63;;;11.30;;
36551;SDS011;22559;54.176;12.102;2023-07-22T04:17:49;14.00;;;9.80;;
36551;SDS011;22559;54.176;12.102;2023-07-22T04:20:14;17.40;;;9.67;;
36551;SDS011;22559;54.176;12.102;2023-07-22T04:22:41;16.10;;;10.20;;
36551;SDS011;22559;54.176;12.102;2023-07-22T04:25:06;15.67;;;9.80;;
36551;SDS011;22559;54.176;12.102;2023-07-22T04:27:32;16.77;;;9.77;;
36551;SDS011;22559;54.176;12.102;2023-07-22T04:29:59;14.20;;;9.40;;
36551;SDS011;22559;54.176;12.102;2023-07-22T04:32:25;12.40;;;8.43;;
36551;SDS011;22559;54.176;12.102;2023-07-22T04:34:50;16.33;;;9.80;;
36551;SDS011;22559;54.176;12.102;2023-07-22T04:37:16;11.67;;;8.30;;
36551;SDS011;22559;54.176;12.102;2023-07-22T04:39:42;15.70;;;8.97;;
36551;SDS011;22559;54.176;12.102;2023-07-22T04:42:11;9.50;;;7.77;;
36551;SDS011;22559;54.176;12.102;2023-07-22T04:44:37;12.87;;;8.33;;
36551;SDS011;22559;54.176;12.102;2023-07-22T04:47:02;12.07;;;7.50;;
36551;SDS011;22559;54.176;12.102;2023-07-22T04:49:28;11.13;;;7.20;;
36551;SDS011;22559;54.176;12.102;2023-07-22T04:51:54;9.33;;;6.50;;
36551;SDS011;22559;54.176;12.102;2023-07-22T04:54:19;12.40;;;6.43;;
36551;SDS011;22559;54.176;12.102;2023-07-22T04:56:45;7.97;;;6.80;;
36551;SDS011;22559;54.176;12.102;2023-07-22T04:59:11;12.03;;;6.70;;
36551;SDS011;22559;54.176;12.102;2023-07-22T05:01:38;8.47;;;6.57;;
36551;SDS011;22559;54.176;12.102;2023-07-22T05:04:04;9.57;;;6.23;;
36551;SDS011;22559;54.176;12.102;2023-07-22T05:06:30;8.90;;;6.27;;
36551;SDS011;22559;54.176;12.102;2023-07-22T05:08:56;8.83;;;6.50;;
36551;SDS011;22559;54.176;12.102;2023-07-22T05:11:21;11.60;;;6.80;;
36551;SDS011;22559;54.176;12.102;2023-07-22T05:13:48;10.50;;;6.53;;
36551;SDS011;22559;54.176;12.102;2023-07-22T05:16:14;9.50;;;5.97;;
36551;SDS011;22559;54.176;12.102;2023-07-22T05:18:39;11.73;;;6.50;;
36551;SDS011;22559;54.176;12.102;2023-07-22T05:21:05;6.80;;;5.60;;
36551;SDS011;22559;54.176;12.102;2023-07-22T05:23:31;13.03;;;6.70;;
36551;SDS011;22559;54.176;12.102;2023-07-22T05:25:57;9.47;;;6.47;;
36551;SDS011;22559;54.176;12.102;2023-07-22T05:28:22;12.20;;;6.07;;
36551;SDS011;22559;54.176;12.102;2023-07-22T05:30:48;7.17;;;6.00;;
36551;SDS011;22559;54.176;12.102;2023-07-22T05:33:14;9.63;;;5.97;;
36551;SDS011;22559;54.176;12.102;2023-07-22T05:35:39;6.67;;;5.50;;
36551;SDS011;22559;54.176;12.102;2023-07-22T05:38:05;10.57;;;6.33;;
36551;SDS011;22559;54.176;12.102;2023-07-22T05:40:31;9.80;;;6.03;;
36551;SDS011;22559;54.176;12.102;2023-07-22T05:42:57;10.50;;;6.37;;
36551;SDS011;22559;54.176;12.102;2023-07-22T05:45:22;9.43;;;6.07;;
36551;SDS011;22559;54.176;12.102;2023-07-22T05:47:48;11.73;;;6.30;;
36551;SDS011;22559;54.176;12.102;2023-07-22T05:50:13;11.23;;;6.50;;
36551;SDS011;22559;54.176;12.102;2023-07-22T05:52:39;13.30;;;7.20;;
36551;SDS011;22559;54.176;12.102;2023-07-22T05:55:05;13.20;;;7.93;;
36551;SDS011;22559;54.176;12.102;2023-07-22T05:57:31;12.63;;;5.97;;
36551;SDS011;22559;54.176;12.102;2023-07-22T05:59:56;9.10;;;6.53;;
36551;SDS011;22559;54.176;12.102;2023-07-22T06:02:22;7.37;;;4.97;;
36551;SDS011;22559;54.176;12.102;2023-07-22T06:04:48;7.93;;;5.27;;
36551;SDS011;22559;54.176;12.102;2023-07-22T06:07:13;6.60;;;5.13;;
36551;SDS011;22559;54.176;12.102;2023-07-22T06:09:39;10.90;;;5.47;;
36551;SDS011;22559;54.176;12.102;2023-07-22T06:12:05;16.93;;;8.40;;
36551;SDS011;22559;54.176;12.102;2023-07-22T06:14:31;9.60;;;5.33;;
36551;SDS011;22559;54.176;12.102;2023-07-22T06:16:56;7.70;;;4.43;;
36551;SDS011;22559;54.176;12.102;2023-07-22T06:19:22;5.30;;;4.13;;
36551;SDS011;22559;54.176;12.102;2023-07-22T06:21:48;4.83;;;4.17;;
36551;SDS011;22559;54.176;12.102;2023-07-22T06:24:14;6.77;;;3.87;;
36551;SDS011;22559;54.176;12.102;2023-07-22T06:26:41;4.37;;;3.97;;
36551;SDS011;22559;54.176;12.102;2023-07-22T06:29:06;5.20;;;3.93;;
36551;SDS011;22559;54.176;12.102;2023-07-22T06:31:32;4.47;;;3.30;;
36551;SDS011;22559;54.176;12.102;2023-07-22T06:33:58;3.90;;;2.90;;
36551;SDS011;22559;54.176;12.102;2023-07-22T06:36:25;6.23;;;3.23;;
36551;SDS011;22559;54.176;12.102;2023-07-22T06:38:51;5.10;;;2.90;;
36551;SDS011;22559;54.176;12.102;2023-07-22T06:41:16;3.27;;;3.00;;
36551;SDS011;22559;54.176;12.102;2023-07-22T06:43:44;4.60;;;3.60;;
36551;SDS011;22559;54.176;12.102;2023-07-22T06:46:09;3.83;;;2.43;;
36551;SDS011;22559;54.176;12.102;2023-07-22T06:48:35;3.57;;;2.50;;
36551;SDS011;22559;54.176;12.102;2023-07-22T06:51:01;2.47;;;2.27;;
36551;SDS011;22559;54.176;12.102;2023-07-22T06:53:26;2.57;;;2.37;;
36551;SDS011;22559;54.176;12.102;2023-07-22T06:55:52;2.70;;;2.50;;
36551;SDS011;22559;54.176;12.102;2023-07-22T06:58:21;2.60;;;2.17;;
36551;SDS011;22559;54.176;12.102;2023-07-22T07:00:53;2.23;;;2.00;;
36551;SDS011;22559;54.176;12.102;2023-07-22T07:03:19;1.87;;;1.77;;
36551;SDS011;22559;54.176;12.102;2023-07-22T07:05:51;2.43;;;2.27;;
36551;SDS011;22559;54.176;12.102;2023-07-22T07:08:20;1.93;;;1.73;;
36551;SDS011;22559;54.176;12.102;2023-07-22T07:10:46;2.37;;;2.10;;
36551;SDS011;22559;54.176;12.102;2023-07-22T07:13:12;2.20;;;1.70;;
36551;SDS011;22559;54.176;12.102;2023-07-22T07:15:38;1.80;;;1.70;;
36551;SDS011;22559;54.176;12.102;2023-07-22T07:18:03;1.23;;;1.20;;
36551;SDS011;22559;54.176;12.102;2023-07-22T07:20:30;1.80;;;1.50;;
36551;SDS011;22559;54.176;12.102;2023-07-22T07:22:55;2.53;;;1.90;;
36551;SDS011;22559;54.176;12.102;2023-07-22T07:25:21;1.40;;;1.33;;
36551;SDS011;22559;54.176;12.102;2023-07-22T07:27:47;2.10;;;1.40;;
36551;SDS011;22559;54.176;12.102;2023-07-22T07:30:13;5.55;;;3.95;;
36551;SDS011;22559;54.176;12.102;2023-07-22T07:32:38;1.43;;;1.37;;
36551;SDS011;22559;54.176;12.102;2023-07-22T07:35:04;2.50;;;1.40;;
36551;SDS011;22559;54.176;12.102;2023-07-22T07:37:31;1.33;;;1.27;;
36551;SDS011;22559;54.176;12.102;2023-07-22T07:39:57;1.13;;;1.13;;
36551;SDS011;22559;54.176;12.102;2023-07-22T07:42:26;1.70;;;1.60;;
36551;SDS011;22559;54.176;12.102;2023-07-22T07:44:52;3.00;;;1.40;;
36551;SDS011;22559;54.176;12.102;2023-07-22T07:47:18;3.38;;;1.50;;
36551;SDS011;22559;54.176;12.102;2023-07-22T07:49:43;1.40;;;1.38;;
36551;SDS011;22559;54.176;12.102;2023-07-22T07:52:10;1.38;;;1.30;;
36551;SDS011;22559;54.176;12.102;2023-07-22T07:54:35;1.60;;;1.50;;
36551;SDS011;22559;54.176;12.102;2023-07-22T07:57:01;2.28;;;1.80;;
36551;SDS011;22559;54.176;12.102;2023-07-22T07:59:27;1.90;;;1.60;;
36551;SDS011;22559;54.176;12.102;2023-07-22T08:01:52;2.67;;;2.03;;
36551;SDS011;22559;54.176;12.102;2023-07-22T08:04:18;1.85;;;1.75;;
36551;SDS011;22559;54.176;12.102;2023-07-22T08:06:44;1.98;;;1.77;;
36551;SDS011;22559;54.176;12.102;2023-07-22T08:09:10;1.80;;;1.70;;
36551;SDS011;22559;54.176;12.102;2023-07-22T08:11:37;1.77;;;1.67;;
36551;SDS011;22559;54.176;12.102;2023-07-22T08:14:03;2.03;;;1.80;;
36551;SDS011;22559;54.176;12.102;2023-07-22T08:16:30;1.83;;;1.73;;
36551;SDS011;22559;54.176;12.102;2023-07-22T08:18:56;3.05;;;1.48;;
36551;SDS011;22559;54.176;12.102;2023-07-22T08:21:22;1.90;;;1.80;;
36551;SDS011;22559;54.176;12.102;2023-07-22T08:23:47;2.53;;;1.65;;
36551;SDS011;22559;54.176;12.102;2023-07-22T08:26:13;1.70;;;1.60;;
36551;SDS011;22559;54.176;12.102;2023-07-22T08:28:39;1.88;;;1.70;;
36551;SDS011;22559;54.176;12.102;2023-07-22T08:31:05;1.70;;;1.60;;
36551;SDS011;22559;54.176;12.102;2023-07-22T08:33:30;1.40;;;1.40;;
36551;SDS011;22559;54.176;12.102;2023-07-22T08:35:56;2.20;;;1.60;;
36551;SDS011;22559;54.176;12.102;2023-07-22T08:38:22;1.40;;;1.40;;
36551;SDS011;22559;54.176;12.102;2023-07-22T08:40:48;1.40;;;1.30;;
36551;SDS011;22559;54.176;12.102;2023-07-22T08:43:16;1.58;;;1.23;;
36551;SDS011;22559;54.176;12.102;2023-07-22T08:45:45;2.38;;;1.95;;
36551;SDS011;22559;54.176;12.102;2023-07-22T08:48:13;3.45;;;2.30;;
36551;SDS011;22559;54.176;12.102;2023-07-22T08:50:44;1.45;;;1.45;;
36551;SDS011;22559;54.176;12.102;2023-07-22T08:53:11;1.77;;;1.67;;
36551;SDS011;22559;54.176;12.102;2023-07-22T08:55:37;1.55;;;1.45;;
36551;SDS011;22559;54.176;12.102;2023-07-22T08:58:10;1.42;;;1.33;;
36551;SDS011;22559;54.176;12.102;2023-07-22T09:00:37;1.58;;;1.15;;
36551;SDS011;22559;54.176;12.102;2023-07-22T09:03:04;1.83;;;1.42;;
36551;SDS011;22559;54.176;12.102;2023-07-22T09:05:33;1.40;;;1.30;;
36551;SDS011;22559;54.176;12.102;2023-07-22T09:08:01;1.13;;;1.13;;
36551;SDS011;22559;54.176;12.102;2023-07-22T09:10:28;1.42;;;1.30;;
36551;SDS011;22559;54.176;12.102;2023-07-22T09:12:54;1.40;;;1.30;;
36551;SDS011;22559;54.176;12.102;2023-07-22T09:15:21;1.60;;;1.50;;
36551;SDS011;22559;54.176;12.102;2023-07-22T09:17:48;1.40;;;1.30;;
36551;SDS011;22559;54.176;12.102;2023-07-22T09:20:14;1.52;;;1.42;;
36551;SDS011;22559;54.176;12.102;2023-07-22T09:22:47;1.52;;;1.40;;
36551;SDS011;22559;54.176;12.102;2023-07-22T09:25:18;1.67;;;1.58;;
36551;SDS011;22559;54.176;12.102;2023-07-22T09:27:48;1.73;;;1.30;;
36551;SDS011;22559;54.176;12.102;2023-07-22T09:30:25;2.20;;;1.35;;
36551;SDS011;22559;54.176;12.102;2023-07-22T09:32:59;1.20;;;1.20;;
36551;SDS011;22559;54.176;12.102;2023-07-22T09:35:30;1.52;;;1.40;;
36551;SDS011;22559;54.176;12.102;2023-07-22T09:37:55;1.30;;;1.20;;
36551;SDS011;22559;54.176;12.102;2023-07-22T09:40:24;1.42;;;1.33;;
36551;SDS011;22559;54.176;12.102;2023-07-22T09:43:00;1.48;;;1.38;;
36551;SDS011;22559;54.176;12.102;2023-07-22T09:45:29;1.02;;;1.00;;
36551;SDS011;22559;54.176;12.102;2023-07-22T09:47:55;1.60;;;1.50;;
36551;SDS011;22559;54.176;12.102;2023-07-22T09:50:22;3.20;;;1.95;;
36551;SDS011;22559;54.176;12.102;2023-07-22T09:52:52;1.20;;;1.20;;
36551;SDS011;22559;54.176;12.102;2023-07-22T09:55:23;3.05;;;1.50;;
36551;SDS011;22559;54.176;12.102;2023-07-22T09:57:54;3.42;;;1.70;;
36551;SDS011;22559;54.176;12.102;2023-07-22T10:00:33;3.40;;;1.30;;
36551;SDS011;22559;54.176;12.102;2023-07-22T10:03:00;1.48;;;1.38;;
36551;SDS011;22559;54.176;12.102;2023-07-22T10:05:27;1.42;;;1.42;;
36551;SDS011;22559;54.176;12.102;2023-07-22T10:07:55;2.15;;;1.27;;
36551;SDS011;22559;54.176;12.102;2023-07-22T10:12:52;1.40;;;1.30;;
36551;SDS011;22559;54.176;12.102;2023-07-22T10:15:18;4.90;;;1.52;;
36551;SDS011;22559;54.176;12.102;2023-07-22T10:17:45;1.48;;;1.30;;
36551;SDS011;22559;54.176;12.102;2023-07-22T10:20:12;1.00;;;1.00;;
36551;SDS011;22559;54.176;12.102;2023-07-22T10:22:42;1.50;;;1.30;;
36551;SDS011;22559;54.176;12.102;2023-07-22T10:25:10;1.25;;;1.20;;
36551;SDS011;22559;54.176;12.102;2023-07-22T10:27:37;0.95;;;0.95;;
36551;SDS011;22559;54.176;12.102;2023-07-22T10:30:05;1.10;;;1.00;;
36551;SDS011;22559;54.176;12.102;2023-07-22T10:32:35;1.10;;;1.10;;
36551;SDS011;22559;54.176;12.102;2023-07-22T10:35:03;1.70;;;1.20;;
36551;SDS011;22559;54.176;12.102;2023-07-22T10:37:32;1.33;;;1.23;;
36551;SDS011;22559;54.176;12.102;2023-07-22T10:39:59;1.58;;;0.95;;
36551;SDS011;22559;54.176;12.102;2023-07-22T10:42:26;2.58;;;1.30;;
36551;SDS011;22559;54.176;12.102;2023-07-22T10:44:51;1.25;;;1.20;;
36551;SDS011;22559;54.176;12.102;2023-07-22T10:47:31;1.20;;;1.20;;
36551;SDS011;22559;54.176;12.102;2023-07-22T10:50:04;1.48;;;1.20;;
36551;SDS011;22559;54.176;12.102;2023-07-22T10:52:41;1.75;;;1.05;;
36551;SDS011;22559;54.176;12.102;2023-07-22T10:55:15;1.00;;;1.00;;
36551;SDS011;22559;54.176;12.102;2023-07-22T10:57:48;1.13;;;1.13;;
36551;SDS011;22559;54.176;12.102;2023-07-22T11:00:19;1.00;;;1.00;;
36551;SDS011;22559;54.176;12.102;2023-07-22T11:02:46;1.30;;;1.15;;
36551;SDS011;22559;54.176;12.102;2023-07-22T11:05:52;1.20;;;1.20;;
36551;SDS011;22559;54.176;12.102;2023-07-22T11:08:36;1.60;;;1.50;;
36551;SDS011;22559;54.176;12.102;2023-07-22T11:11:05;1.60;;;1.33;;
36551;SDS011;22559;54.176;12.102;2023-07-22T11:13:34;2.00;;;1.30;;
36551;SDS011;22559;54.176;12.102;2023-07-22T11:16:04;1.20;;;1.20;;
36551;SDS011;22559;54.176;12.102;2023-07-22T11:18:35;1.17;;;1.00;;
36551;SDS011;22559;54.176;12.102;2023-07-22T11:21:11;1.17;;;1.13;;
36551;SDS011;22559;54.176;12.102;2023-07-22T11:23:37;1.20;;;1.10;;
36551;SDS011;22559;54.176;12.102;2023-07-22T11:26:03;1.77;;;1.20;;
36551;SDS011;22559;54.176;12.102;2023-07-22T11:28:30;1.48;;;1.20;;
36551;SDS011;22559;54.176;12.102;2023-07-22T11:30:56;1.10;;;1.00;;
36551;SDS011;22559;54.176;12.102;2023-07-22T11:33:24;1.45;;;1.20;;
36551;SDS011;22559;54.176;12.102;2023-07-22T11:35:49;1.83;;;1.45;;
36551;SDS011;22559;54.176;12.102;2023-07-22T11:38:15;1.23;;;1.13;;
36551;SDS011;22559;54.176;12.102;2023-07-22T11:40:41;1.00;;;1.00;;
36551;SDS011;22559;54.176;12.102;2023-07-22T11:43:06;1.35;;;1.20;;
36551;SDS011;22559;54.176;12.102;2023-07-22T11:45:32;1.27;;;1.10;;
36551;SDS011;22559;54.176;12.102;2023-07-22T11:47:59;1.52;;;1.20;;
36551;SDS011;22559;54.176;12.102;2023-07-22T11:50:34;2.10;;;1.30;;
36551;SDS011;22559;54.176;12.102;2023-07-22T11:53:00;1.17;;;1.17;;
36551;SDS011;22559;54.176;12.102;2023-07-22T11:55:25;1.33;;;1.20;;
36551;SDS011;22559;54.176;12.102;2023-07-22T11:57:51;1.75;;;1.10;;
36551;SDS011;22559;54.176;12.102;2023-07-22T12:00:20;1.15;;;1.10;;
36551;SDS011;22559;54.176;12.102;2023-07-22T12:02:46;1.63;;;1.05;;
36551;SDS011;22559;54.176;12.102;2023-07-22T12:05:19;1.58;;;1.40;;
36551;SDS011;22559;54.176;12.102;2023-07-22T12:07:46;1.50;;;1.35;;
36551;SDS011;22559;54.176;12.102;2023-07-22T12:10:12;1.30;;;1.27;;
36551;SDS011;22559;54.176;12.102;2023-07-22T12:12:41;1.52;;;1.52;;
36551;SDS011;22559;54.176;12.102;2023-07-22T12:15:10;1.50;;;1.33;;
36551;SDS011;22559;54.176;12.102;2023-07-22T12:18:04;2.33;;;2.22;;
36551;SDS011;22559;54.176;12.102;2023-07-22T12:20:30;1.50;;;1.48;;
36551;SDS011;22559;54.176;12.102;2023-07-22T12:22:57;1.40;;;1.40;;
36551;SDS011;22559;54.176;12.102;2023-07-22T12:25:24;1.10;;;1.10;;
36551;SDS011;22559;54.176;12.102;2023-07-22T12:27:50;1.50;;;1.20;;
36551;SDS011;22559;54.176;12.102;2023-07-22T12:30:15;1.30;;;1.20;;
36551;SDS011;22559;54.176;12.102;2023-07-22T12:32:41;1.20;;;1.20;;
36551;SDS011;22559;54.176;12.102;2023-07-22T12:35:07;1.13;;;1.10;;
36551;SDS011;22559;54.176;12.102;2023-07-22T12:37:33;1.40;;;1.30;;
36551;SDS011;22559;54.176;12.102;2023-07-22T12:39:59;1.15;;;1.10;;
36551;SDS011;22559;54.176;12.102;2023-07-22T12:42:25;1.30;;;1.20;;
36551;SDS011;22559;54.176;12.102;2023-07-22T12:44:51;1.83;;;1.40;;
36551;SDS011;22559;54.176;12.102;2023-07-22T12:47:17;2.25;;;1.08;;
36551;SDS011;22559;54.176;12.102;2023-07-22T12:49:42;1.00;;;1.00;;
36551;SDS011;22559;54.176;12.102;2023-07-22T12:52:08;0.95;;;0.95;;
36551;SDS011;22559;54.176;12.102;2023-07-22T12:54:37;0.93;;;0.93;;
36551;SDS011;22559;54.176;12.102;2023-07-22T12:57:03;1.13;;;1.13;;
36551;SDS011;22559;54.176;12.102;2023-07-22T12:59:29;1.63;;;1.48;;
36551;SDS011;22559;54.176;12.102;2023-07-22T13:01:55;1.20;;;1.20;;
36551;SDS011;22559;54.176;12.102;2023-07-22T13:04:22;2.13;;;1.30;;
36551;SDS011;22559;54.176;12.102;2023-07-22T13:06:49;1.60;;;1.10;;
36551;SDS011;22559;54.176;12.102;2023-07-22T13:09:16;1.33;;;1.23;;
36551;SDS011;22559;54.176;12.102;2023-07-22T13:11:42;1.42;;;1.10;;
36551;SDS011;22559;54.176;12.102;2023-07-22T13:14:08;1.13;;;1.00;;
36551;SDS011;22559;54.176;12.102;2023-07-22T13:16:34;1.35;;;1.00;;
36551;SDS011;22559;54.176;12.102;2023-07-22T13:18:59;1.48;;;1.30;;
36551;SDS011;22559;54.176;12.102;2023-07-22T13:21:28;1.55;;;1.45;;
36551;SDS011;22559;54.176;12.102;2023-07-22T13:23:54;1.17;;;1.00;;
36551;SDS011;22559;54.176;12.102;2023-07-22T13:26:19;1.30;;;1.20;;
36551;SDS011;22559;54.176;12.102;2023-07-22T13:28:45;1.23;;;1.23;;
36551;SDS011;22559;54.176;12.102;2023-07-22T13:31:11;2.00;;;1.90;;
36551;SDS011;22559;54.176;12.102;2023-07-22T13:33:36;1.63;;;1.27;;
36551;SDS011;22559;54.176;12.102;2023-07-22T13:36:02;1.50;;;1.40;;
36551;SDS011;22559;54.176;12.102;2023-07-22T13:38:28;1.63;;;1.38;;
36551;SDS011;22559;54.176;12.102;2023-07-22T13:40:55;1.38;;;1.20;;
36551;SDS011;22559;54.176;12.102;2023-07-22T13:43:20;2.25;;;1.25;;
36551;SDS011;22559;54.176;12.102;2023-07-22T13:45:46;1.13;;;1.13;;
36551;SDS011;22559;54.176;12.102;2023-07-22T13:48:12;1.85;;;1.20;;
36551;SDS011;22559;54.176;12.102;2023-07-22T13:50:38;1.48;;;1.38;;
36551;SDS011;22559;54.176;12.102;2023-07-22T13:53:03;2.17;;;1.30;;
36551;SDS011;22559;54.176;12.102;2023-07-22T13:55:29;2.25;;;1.40;;
36551;SDS011;22559;54.176;12.102;2023-07-22T13:57:55;4.70;;;1.40;;
36551;SDS011;22559;54.176;12.102;2023-07-22T14:00:20;3.25;;;1.50;;
36551;SDS011;22559;54.176;12.102;2023-07-22T14:02:46;3.38;;;1.63;;
36551;SDS011;22559;54.176;12.102;2023-07-22T14:05:11;2.65;;;1.50;;
36551;SDS011;22559;54.176;12.102;2023-07-22T14:07:38;2.65;;;1.30;;
36551;SDS011;22559;54.176;12.102;2023-07-22T14:10:04;2.45;;;1.30;;
36551;SDS011;22559;54.176;12.102;2023-07-22T14:12:30;1.42;;;1.35;;
36551;SDS011;22559;54.176;12.102;2023-07-22T14:14:56;1.55;;;1.20;;
36551;SDS011;22559;54.176;12.102;2023-07-22T14:17:22;1.88;;;1.52;;
36551;SDS011;22559;54.176;12.102;2023-07-22T14:19:47;2.33;;;1.42;;
36551;SDS011;22559;54.176;12.102;2023-07-22T14:22:13;1.40;;;1.30;;
36551;SDS011;22559;54.176;12.102;2023-07-22T14:24:39;1.80;;;1.70;;
36551;SDS011;22559;54.176;12.102;2023-07-22T14:27:05;2.25;;;1.30;;
36551;SDS011;22559;54.176;12.102;2023-07-22T14:29:31;2.03;;;1.40;;
36551;SDS011;22559;54.176;12.102;2023-07-22T14:31:56;1.10;;;1.10;;
36551;SDS011;22559;54.176;12.102;2023-07-22T14:34:23;1.88;;;1.40;;